x

South Moresby (46147) Wave Buoy

6:00am - Wed 16th Apr 2014 All times are PDT. -7 hours from GMT.

  • Sig Wave height 9.2ft
  • Peak Period 13s
  • Wind
    13mph, 18mph gusts
  • Sea Temp 45°f
  • Air Temp 46°f
  • Sea Pressure 1007.8mb
  • South Moresby
  • South Moresby

More Historic Weather Station data

Upgrade to MSW Pro to gain access to the past 30 days of data for over 8000 Wavebouys and Weather Stations around the globe.

Join Pro

Comparision Forecast

View Surf forecast
   
Wed 04/16 6:00am 9ft 13s 13 18 mph 1007.8mb 45f 46f
5:00am 10ft 12s 18 22 mph 1008.2mb 45f 46f
4:00am 10ft 12s 20 25 mph 1008.4mb 45f 46f
3:00am 9.5ft 12s 22 27 mph 1008.9mb 45f 46f
2:00am 9.5ft 13s 25 31 mph 1009.3mb 45f 45f
1:00am 10ft 12s 25 31 mph 1010.3mb 45f 45f
12:00am 9.5ft 14s 22 29 mph 1010.8mb 45f 45f
Tue 04/15 11:00pm 9ft 13s 20 29 mph 1011.4mb 45f 46f
10:00pm 8.5ft 13s 16 22 mph 1012.2mb 46f 46f
9:00pm  -   -  18
mph
- - 46f
8:00pm 8ft 11s 13 18 mph 1012.9mb 45f 46f
7:00pm 7ft 8s 11 13 mph 1013.5mb 46f 46f
6:00pm 7.5ft 11s 9 13 mph 1014.3mb 46f 46f
4:00pm 6.5ft 8s 13 16 mph 1014.6mb 46f 46f
3:00pm 7ft 10s 9 13 mph 1014.8mb 46f 46f
2:00pm 7ft 8s 11 13 mph 1015.2mb 46f 46f
1:00pm 7ft 10s 9 13 mph 1015.2mb 46f 46f
12:00pm 7.5ft 10s 9 13 mph 1015.1mb 46f 46f
11:00am 7ft 9s 11 13 mph 1015.3mb 46f 46f
10:00am  -   -  7
mph
- - 46f
9:00am 8ft 12s 11 13 mph 1015.2mb 46f 46f
8:00am 9ft 9s 13 16 mph 1015mb 45f 46f
7:00am 9.5ft 8s 13 18 mph 1014.5mb 45f 46f
6:00am 8ft 9s 13 16 mph 1014.3mb 45f 46f
5:00am 9ft 10s 13 16 mph 1014.1mb 45f 46f
4:00am 9ft 10s 16 20 mph 1014.1mb 45f 46f
3:00am 9ft 10s 20 25 mph 1014.2mb 45f 46f
2:00am 9ft 10s 18 25 mph 1014.2mb 45f 46f
1:00am 8.5ft 10s 18 25 mph 1014.1mb 45f 46f
12:00am 9.5ft 11s 16 20 mph 1013.9mb 45f 47f
Mon 04/14 11:00pm 9.5ft 9s 18 22 mph 1013.9mb 45f 46f
10:00pm 10.5ft 11s 11 16 mph 1014.5mb 46f 46f
9:00pm 11ft 11s 18 25 mph 1014.6mb 45f 46f
8:00pm 11ft 11s 20 27 mph 1014.3mb 46f 46f
7:00pm 11ft 10s 25 34 mph 1014.2mb 46f 46f
6:00pm 12ft 10s 27 31 mph 1013.9mb 46f 46f
5:00pm 11ft 12s 25 31 mph 1013.1mb 46f 46f
4:00pm 10.5ft 10s 22 29 mph 1012.6mb 46f 46f
3:00pm 8.5ft 12s 22 27 mph 1011.7mb 46f 46f
2:00pm 8ft 12s 20 27 mph 1009.9mb 46f 46f
1:00pm 7ft 13s 11 16 mph 1009.6mb 45f 46f
12:00pm 7.5ft 12s 18 22 mph 1009.3mb 46f 46f
11:00am 6.5ft 5s 20 25 mph 1010.1mb 46f 44f
10:00am 6ft 12s 22 27 mph 1011mb 45f 46f
9:00am 5ft 14s 20 25 mph 1011.9mb 46f 46f
8:00am 5ft 12s 20 25 mph 1012.5mb 46f 46f
7:00am 5ft 14s 18 22 mph 1013.4mb 46f 45f
6:00am 5ft 14s 16 18 mph 1014.5mb 46f 45f
5:00am 5ft 14s 13 18 mph 1015.4mb 46f 46f
4:00am 5ft 12s 11 13 mph 1015.9mb 46f 46f
3:00am 5ft 10s 13 16 mph 1017.1mb 46f 46f
2:00am 4.5ft 13s 13 16 mph 1017.8mb 46f 46f
1:00am 4.5ft 11s 13 16 mph 1018.4mb 46f 46f
12:00am 4.5ft 10s 11 16 mph 1019mb 45f 46f
Sun 04/13 11:00pm 5ft 11s 11 13 mph 1019.6mb 45f 46f
10:00pm 4.5ft 13s 13 16 mph 1020.4mb 45f 46f
9:00pm 4.5ft 14s 11 13 mph 1020.8mb 46f 46f
8:00pm 4.5ft 14s 9 11 mph 1021.2mb 46f 44f
7:00pm 4.5ft 14s 13 18 mph 1021.8mb 46f 43f
6:00pm 4.5ft 14s 13 16 mph 1022.7mb 46f 44f
5:00pm 4.5ft 14s 9 11 mph 1023.6mb 47f 47f
4:00pm 4ft 14s 9 11 mph 1024.5mb 47f 47f
3:00pm 3.5ft 14s 11 13 mph 1024.8mb 47f 46f
2:00pm 4ft 14s 7 9 mph 1025.2mb 47f 46f
1:00pm 4.5ft 15s 9
mph
1025.2mb 46f 46f
12:00pm 4.5ft 14s 9
mph
1025.7mb 46f 46f
11:00am 4.5ft 14s 7 9 mph 1025.8mb 46f 46f
10:00am 4.5ft 11s 7 9 mph 1025.7mb 46f 46f
9:00am 4.5ft 15s 4
mph
1025.6mb 45f 46f
8:00am 4.5ft 14s 4
mph
1025.7mb 45f 46f
7:00am 4.5ft 10s 4
mph
1025.6mb 46f 45f
6:00am 4.5ft 14s 4 7 mph 1025.8mb 46f 45f
5:00am 5ft 10s 4
mph
1025.8mb 46f 45f
4:00am 5ft 14s 4 7 mph 1025.7mb 46f 45f
3:00am 5ft 11s 9
mph
1025.7mb 46f 46f
2:00am 5ft 15s 9 11 mph 1025.7mb 46f 46f
1:00am 5ft 16s 9
mph
1025.6mb 46f 46f
12:00am 5ft 16s 7 9 mph 1025.4mb 46f 46f
Sat 04/12 11:00pm 5ft 10s 7 9 mph 1025.4mb 46f 46f
10:00pm 5.5ft 15s 4 7 mph 1025.5mb 46f 46f
9:00pm 5.5ft 10s 7
mph
1025.5mb 46f 46f
8:00pm 5.5ft 10s 7 9 mph 1025.5mb 47f 46f
7:00pm 5.5ft 10s 9
mph
1025.5mb 47f 47f
6:00pm 6ft 10s 9 11 mph 1025.9mb 47f 47f
5:00pm 7ft 11s 11 13 mph 1026.4mb 47f 46f
4:00pm 6ft 11s 9 13 mph 1026.5mb 47f 46f
3:00pm 7ft 10s 9 11 mph 1026.4mb 47f 46f